sensor_id;sensor_type;location;lat;lon;timestamp;pressure;altitude;pressure_sealevel;temperature
40047;BMP280;31510;48.122;11.576;2023-03-25T00:02:05;95121.84;;;9.59
40047;BMP280;31510;48.122;11.576;2023-03-25T00:04:30;95117.69;;;9.58
40047;BMP280;31510;48.122;11.576;2023-03-25T00:06:56;95115.47;;;9.56
40047;BMP280;31510;48.122;11.576;2023-03-25T00:09:22;95119.63;;;9.57
40047;BMP280;31510;48.122;11.576;2023-03-25T00:11:50;95114.03;;;9.55
40047;BMP280;31510;48.122;11.576;2023-03-25T00:14:16;95110.91;;;9.57
40047;BMP280;31510;48.122;11.576;2023-03-25T00:16:42;95109.72;;;9.58
40047;BMP280;31510;48.122;11.576;2023-03-25T00:19:12;95101.44;;;9.56
40047;BMP280;31510;48.122;11.576;2023-03-25T00:21:37;95102.94;;;9.57
40047;BMP280;31510;48.122;11.576;2023-03-25T00:24:04;95106.75;;;9.56
40047;BMP280;31510;48.122;11.576;2023-03-25T00:26:29;95097.28;;;9.55
40047;BMP280;31510;48.122;11.576;2023-03-25T00:28:56;95097.59;;;9.57
40047;BMP280;31510;48.122;11.576;2023-03-25T00:31:21;95104.41;;;9.58
40047;BMP280;31510;48.122;11.576;2023-03-25T00:33:46;95093.47;;;9.56
40047;BMP280;31510;48.122;11.576;2023-03-25T00:36:15;95088.56;;;9.54
40047;BMP280;31510;48.122;11.576;2023-03-25T00:38:42;95092.88;;;9.52
40047;BMP280;31510;48.122;11.576;2023-03-25T00:41:17;95089.94;;;9.50
40047;BMP280;31510;48.122;11.576;2023-03-25T00:43:48;95081.19;;;9.50
40047;BMP280;31510;48.122;11.576;2023-03-25T00:46:13;95076.63;;;9.50
40047;BMP280;31510;48.122;11.576;2023-03-25T00:48:39;95090.50;;;9.54
40047;BMP280;31510;48.122;11.576;2023-03-25T00:51:05;95068.78;;;9.55
40047;BMP280;31510;48.122;11.576;2023-03-25T00:53:37;95083.84;;;9.58
40047;BMP280;31510;48.122;11.576;2023-03-25T00:56:03;95088.28;;;9.61
40047;BMP280;31510;48.122;11.576;2023-03-25T00:58:28;95064.63;;;9.63
40047;BMP280;31510;48.122;11.576;2023-03-25T01:00:54;95065.19;;;9.67
40047;BMP280;31510;48.122;11.576;2023-03-25T01:03:22;95066.25;;;9.70
40047;BMP280;31510;48.122;11.576;2023-03-25T01:05:48;95073.34;;;9.73
40047;BMP280;31510;48.122;11.576;2023-03-25T01:08:14;95071.69;;;9.75
40047;BMP280;31510;48.122;11.576;2023-03-25T01:10:42;95078.50;;;9.76
40047;BMP280;31510;48.122;11.576;2023-03-25T01:13:08;95060.59;;;9.77
40047;BMP280;31510;48.122;11.576;2023-03-25T01:15:33;95068.16;;;9.78
40047;BMP280;31510;48.122;11.576;2023-03-25T01:17:58;95072.72;;;9.78
40047;BMP280;31510;48.122;11.576;2023-03-25T01:20:24;95070.38;;;9.80
40047;BMP280;31510;48.122;11.576;2023-03-25T01:22:50;95065.78;;;9.80
40047;BMP280;31510;48.122;11.576;2023-03-25T01:25:16;95078.19;;;9.83
40047;BMP280;31510;48.122;11.576;2023-03-25T01:27:41;95074.34;;;9.84
40047;BMP280;31510;48.122;11.576;2023-03-25T01:30:07;95070.78;;;9.87
40047;BMP280;31510;48.122;11.576;2023-03-25T01:32:33;95067.84;;;9.85
40047;BMP280;31510;48.122;11.576;2023-03-25T01:34:58;95071.53;;;9.88
40047;BMP280;31510;48.122;11.576;2023-03-25T01:37:23;95069.31;;;9.86
40047;BMP280;31510;48.122;11.576;2023-03-25T01:39:49;95068.56;;;9.86
40047;BMP280;31510;48.122;11.576;2023-03-25T01:42:15;95067.84;;;9.85
40047;BMP280;31510;48.122;11.576;2023-03-25T01:47:08;95065.75;;;9.89
40047;BMP280;31510;48.122;11.576;2023-03-25T01:49:40;95069.47;;;9.92
40047;BMP280;31510;48.122;11.576;2023-03-25T01:52:13;95074.34;;;9.93
40047;BMP280;31510;48.122;11.576;2023-03-25T01:54:39;95067.09;;;9.94
40047;BMP280;31510;48.122;11.576;2023-03-25T01:57:07;95061.75;;;9.94
40047;BMP280;31510;48.122;11.576;2023-03-25T01:59:33;95064.56;;;9.90
40047;BMP280;31510;48.122;11.576;2023-03-25T02:02:00;95049.78;;;9.89
40047;BMP280;31510;48.122;11.576;2023-03-25T02:04:35;95064.72;;;9.87
40047;BMP280;31510;48.122;11.576;2023-03-25T02:07:04;95064.56;;;9.90
40047;BMP280;31510;48.122;11.576;2023-03-25T02:09:33;95061.88;;;9.90
40047;BMP280;31510;48.122;11.576;2023-03-25T02:11:58;95059.69;;;9.89
40047;BMP280;31510;48.122;11.576;2023-03-25T02:14:27;95061.88;;;9.90
40047;BMP280;31510;48.122;11.576;2023-03-25T02:17:21;95042.53;;;9.90
40047;BMP280;31510;48.122;11.576;2023-03-25T02:31:06;95039.59;;;9.79
40047;BMP280;31510;48.122;11.576;2023-03-25T02:33:51;95025.72;;;9.75
40047;BMP280;31510;48.122;11.576;2023-03-25T02:42:14;95033.59;;;9.60
40047;BMP280;31510;48.122;11.576;2023-03-25T02:44:51;95037.13;;;9.57
40047;BMP280;31510;48.122;11.576;2023-03-25T02:47:20;95052.06;;;9.55
40047;BMP280;31510;48.122;11.576;2023-03-25T02:49:52;95050.31;;;9.52
40047;BMP280;31510;48.122;11.576;2023-03-25T02:52:24;95054.56;;;9.50
40047;BMP280;31510;48.122;11.576;2023-03-25T02:54:53;95055.63;;;9.52
40047;BMP280;31510;48.122;11.576;2023-03-25T02:57:22;95049.53;;;9.52
40047;BMP280;31510;48.122;11.576;2023-03-25T02:59:50;95052.38;;;9.48
40047;BMP280;31510;48.122;11.576;2023-03-25T03:02:20;95061.25;;;9.45
40047;BMP280;31510;48.122;11.576;2023-03-25T03:04:54;95037.75;;;9.44
40047;BMP280;31510;48.122;11.576;2023-03-25T03:07:26;95055.03;;;9.39
40047;BMP280;31510;48.122;11.576;2023-03-25T03:10:09;95054.00;;;9.37
40047;BMP280;31510;48.122;11.576;2023-03-25T03:15:38;95034.06;;;9.32
40047;BMP280;31510;48.122;11.576;2023-03-25T03:20:50;95026.22;;;9.29
40047;BMP280;31510;48.122;11.576;2023-03-25T03:25:55;95029.34;;;9.18
40047;BMP280;31510;48.122;11.576;2023-03-25T03:28:28;95037.47;;;9.15
40047;BMP280;31510;48.122;11.576;2023-03-25T03:31:15;95046.63;;;9.14
40047;BMP280;31510;48.122;11.576;2023-03-25T03:34:07;95046.75;;;9.11
40047;BMP280;31510;48.122;11.576;2023-03-25T03:36:38;95043.22;;;9.05
40047;BMP280;31510;48.122;11.576;2023-03-25T03:39:10;95035.38;;;9.01
40047;BMP280;31510;48.122;11.576;2023-03-25T03:41:40;95045.13;;;9.04
40047;BMP280;31510;48.122;11.576;2023-03-25T03:44:13;95050.28;;;8.99
40047;BMP280;31510;48.122;11.576;2023-03-25T03:46:46;95051.19;;;8.96
40047;BMP280;31510;48.122;11.576;2023-03-25T03:49:20;95055.16;;;8.91
40047;BMP280;31510;48.122;11.576;2023-03-25T03:52:05;95046.91;;;8.89
40047;BMP280;31510;48.122;11.576;2023-03-25T03:54:38;95049.69;;;8.86
40047;BMP280;31510;48.122;11.576;2023-03-25T03:57:17;95066.09;;;8.84
40047;BMP280;31510;48.122;11.576;2023-03-25T03:59:52;95068.44;;;8.82
40047;BMP280;31510;48.122;11.576;2023-03-25T04:04:51;95073.16;;;8.78
40047;BMP280;31510;48.122;11.576;2023-03-25T04:07:21;95076.69;;;8.75
40047;BMP280;31510;48.122;11.576;2023-03-25T04:09:56;95074.47;;;8.74
40047;BMP280;31510;48.122;11.576;2023-03-25T04:12:28;95085.09;;;8.74
40047;BMP280;31510;48.122;11.576;2023-03-25T04:14:55;95079.06;;;8.74
40047;BMP280;31510;48.122;11.576;2023-03-25T04:17:21;95083.06;;;8.69
40047;BMP280;31510;48.122;11.576;2023-03-25T04:19:49;95086.00;;;8.62
40047;BMP280;31510;48.122;11.576;2023-03-25T04:22:18;95090.53;;;8.62
40047;BMP280;31510;48.122;11.576;2023-03-25T04:24:43;95088.31;;;8.60
40047;BMP280;31510;48.122;11.576;2023-03-25T04:27:09;95089.94;;;8.58
40047;BMP280;31510;48.122;11.576;2023-03-25T04:29:38;95093.94;;;8.53
40047;BMP280;31510;48.122;11.576;2023-03-25T04:32:05;95082.97;;;8.51
40047;BMP280;31510;48.122;11.576;2023-03-25T04:34:30;95083.31;;;8.53
40047;BMP280;31510;48.122;11.576;2023-03-25T04:36:56;95083.75;;;8.52
40047;BMP280;31510;48.122;11.576;2023-03-25T04:39:21;95089.78;;;8.52
40047;BMP280;31510;48.122;11.576;2023-03-25T04:41:50;95081.81;;;8.52
40047;BMP280;31510;48.122;11.576;2023-03-25T04:44:18;95086.81;;;8.50
40047;BMP280;31510;48.122;11.576;2023-03-25T04:46:45;95077.38;;;8.49
40047;BMP280;31510;48.122;11.576;2023-03-25T04:49:17;95081.50;;;8.50
40047;BMP280;31510;48.122;11.576;2023-03-25T04:51:43;95088.63;;;8.53
40047;BMP280;31510;48.122;11.576;2023-03-25T04:54:09;95089.34;;;8.54
40047;BMP280;31510;48.122;11.576;2023-03-25T04:56:35;95099.09;;;8.57
40047;BMP280;31510;48.122;11.576;2023-03-25T04:59:00;95102.78;;;8.59
40047;BMP280;31510;48.122;11.576;2023-03-25T05:01:27;95087.16;;;8.61
40047;BMP280;31510;48.122;11.576;2023-03-25T05:03:58;95084.78;;;8.63
40047;BMP280;31510;48.122;11.576;2023-03-25T05:06:37;95077.13;;;8.65
40047;BMP280;31510;48.122;11.576;2023-03-25T05:09:04;95083.19;;;8.66
40047;BMP280;31510;48.122;11.576;2023-03-25T05:11:32;95081.25;;;8.66
40047;BMP280;31510;48.122;11.576;2023-03-25T05:13:57;95074.75;;;8.67
40047;BMP280;31510;48.122;11.576;2023-03-25T05:16:23;95083.91;;;8.66
40047;BMP280;31510;48.122;11.576;2023-03-25T05:18:48;95098.81;;;8.64
40047;BMP280;31510;48.122;11.576;2023-03-25T05:21:14;95083.75;;;8.61
40047;BMP280;31510;48.122;11.576;2023-03-25T05:23:40;95084.63;;;8.58
40047;BMP280;31510;48.122;11.576;2023-03-25T05:26:06;95084.78;;;8.54
40047;BMP280;31510;48.122;11.576;2023-03-25T05:28:31;95081.94;;;8.49
40047;BMP280;31510;48.122;11.576;2023-03-25T05:30:58;95088.75;;;8.50
40047;BMP280;31510;48.122;11.576;2023-03-25T05:33:23;95101.56;;;8.51
40047;BMP280;31510;48.122;11.576;2023-03-25T05:35:48;95106.88;;;8.51
40047;BMP280;31510;48.122;11.576;2023-03-25T05:38:15;95108.25;;;8.56
40047;BMP280;31510;48.122;11.576;2023-03-25T05:40:43;95114.72;;;8.55
40047;BMP280;31510;48.122;11.576;2023-03-25T05:43:10;95113.13;;;8.57
40047;BMP280;31510;48.122;11.576;2023-03-25T05:45:35;95108.13;;;8.59
40047;BMP280;31510;48.122;11.576;2023-03-25T05:48:01;95123.50;;;8.64
40047;BMP280;31510;48.122;11.576;2023-03-25T05:50:27;95116.84;;;8.69
40047;BMP280;31510;48.122;11.576;2023-03-25T05:52:52;95124.69;;;8.72
40047;BMP280;31510;48.122;11.576;2023-03-25T05:55:20;95117.00;;;8.74
40047;BMP280;31510;48.122;11.576;2023-03-25T05:57:46;95118.78;;;8.77
40047;BMP280;31510;48.122;11.576;2023-03-25T06:00:12;95133.25;;;8.76
40047;BMP280;31510;48.122;11.576;2023-03-25T06:02:39;95126.75;;;8.77
40047;BMP280;31510;48.122;11.576;2023-03-25T06:05:11;95122.81;;;8.81
40047;BMP280;31510;48.122;11.576;2023-03-25T06:07:41;95136.41;;;8.83
40047;BMP280;31510;48.122;11.576;2023-03-25T06:10:10;95140.22;;;8.82
40047;BMP280;31510;48.122;11.576;2023-03-25T06:12:36;95148.63;;;8.81
40047;BMP280;31510;48.122;11.576;2023-03-25T06:15:07;95141.09;;;8.79
40047;BMP280;31510;48.122;11.576;2023-03-25T06:17:32;95151.13;;;8.75
40047;BMP280;31510;48.122;11.576;2023-03-25T06:19:58;95150.69;;;8.77
40047;BMP280;31510;48.122;11.576;2023-03-25T06:22:39;95154.84;;;8.78
40047;BMP280;31510;48.122;11.576;2023-03-25T06:25:07;95160.16;;;8.78
40047;BMP280;31510;48.122;11.576;2023-03-25T06:27:33;95164.28;;;8.79
40047;BMP280;31510;48.122;11.576;2023-03-25T06:30:00;95146.88;;;8.78
40047;BMP280;31510;48.122;11.576;2023-03-25T06:32:25;95163.25;;;8.76
40047;BMP280;31510;48.122;11.576;2023-03-25T06:34:51;95162.19;;;8.74
40047;BMP280;31510;48.122;11.576;2023-03-25T06:37:16;95159.22;;;8.72
40047;BMP280;31510;48.122;11.576;2023-03-25T06:39:41;95185.94;;;8.69
40047;BMP280;31510;48.122;11.576;2023-03-25T06:42:10;95183.72;;;8.67
40047;BMP280;31510;48.122;11.576;2023-03-25T06:44:35;95192.75;;;8.70
40047;BMP280;31510;48.122;11.576;2023-03-25T06:47:00;95204.56;;;8.69
40047;BMP280;31510;48.122;11.576;2023-03-25T06:49:28;95189.31;;;8.60
40047;BMP280;31510;48.122;11.576;2023-03-25T06:51:53;95187.66;;;8.54
40047;BMP280;31510;48.122;11.576;2023-03-25T06:54:19;95194.56;;;8.51
40047;BMP280;31510;48.122;11.576;2023-03-25T06:56:44;95199.88;;;8.51
40047;BMP280;31510;48.122;11.576;2023-03-25T06:59:09;95192.81;;;8.48
40047;BMP280;31510;48.122;11.576;2023-03-25T07:01:35;95207.25;;;8.47
40047;BMP280;31510;48.122;11.576;2023-03-25T07:04:00;95209.72;;;8.42
40047;BMP280;31510;48.122;11.576;2023-03-25T07:06:25;95217.09;;;8.38
40047;BMP280;31510;48.122;11.576;2023-03-25T07:08:50;95215.44;;;8.32
40047;BMP280;31510;48.122;11.576;2023-03-25T07:11:20;95225.44;;;8.28
40047;BMP280;31510;48.122;11.576;2023-03-25T07:13:47;95215.81;;;8.21
40047;BMP280;31510;48.122;11.576;2023-03-25T07:16:12;95212.97;;;8.16
40047;BMP280;31510;48.122;11.576;2023-03-25T07:18:38;95225.94;;;8.14
40047;BMP280;31510;48.122;11.576;2023-03-25T07:21:03;95230.22;;;8.11
40047;BMP280;31510;48.122;11.576;2023-03-25T07:23:28;95233.19;;;8.13
40047;BMP280;31510;48.122;11.576;2023-03-25T07:25:54;95233.59;;;8.12
40047;BMP280;31510;48.122;11.576;2023-03-25T07:28:21;95241.56;;;8.12
40047;BMP280;31510;48.122;11.576;2023-03-25T07:30:46;95244.97;;;8.12
40047;BMP280;31510;48.122;11.576;2023-03-25T07:33:11;95246.47;;;8.13
40047;BMP280;31510;48.122;11.576;2023-03-25T07:35:37;95239.09;;;8.17
40047;BMP280;31510;48.122;11.576;2023-03-25T07:38:02;95243.69;;;8.17
40047;BMP280;31510;48.122;11.576;2023-03-25T07:40:28;95251.53;;;8.20
40047;BMP280;31510;48.122;11.576;2023-03-25T07:42:53;95248.56;;;8.18
40047;BMP280;31510;48.122;11.576;2023-03-25T07:45:18;95246.34;;;8.17
40047;BMP280;31510;48.122;11.576;2023-03-25T07:47:43;95242.91;;;8.16
40047;BMP280;31510;48.122;11.576;2023-03-25T07:50:17;95246.63;;;8.19
40047;BMP280;31510;48.122;11.576;2023-03-25T07:52:42;95246.75;;;8.15
40047;BMP280;31510;48.122;11.576;2023-03-25T07:55:08;95252.81;;;8.16
40047;BMP280;31510;48.122;11.576;2023-03-25T07:57:34;95251.34;;;8.15
40047;BMP280;31510;48.122;11.576;2023-03-25T07:59:59;95255.47;;;8.16
40047;BMP280;31510;48.122;11.576;2023-03-25T08:02:25;95264.50;;;8.18
40047;BMP280;31510;48.122;11.576;2023-03-25T08:04:50;95259.19;;;8.18
40047;BMP280;31510;48.122;11.576;2023-03-25T08:07:18;95246.50;;;8.22
40047;BMP280;31510;48.122;11.576;2023-03-25T08:09:43;95259.97;;;8.28
40047;BMP280;31510;48.122;11.576;2023-03-25T08:12:09;95258.66;;;8.32
40047;BMP280;31510;48.122;11.576;2023-03-25T08:14:34;95241.88;;;8.35
40047;BMP280;31510;48.122;11.576;2023-03-25T08:17:00;95239.94;;;8.35
40047;BMP280;31510;48.122;11.576;2023-03-25T08:19:25;95256.81;;;8.41
40047;BMP280;31510;48.122;11.576;2023-03-25T08:21:50;95253.28;;;8.44
40047;BMP280;31510;48.122;11.576;2023-03-25T08:24:16;95236.47;;;8.47
40047;BMP280;31510;48.122;11.576;2023-03-25T08:26:41;95243.91;;;8.52
40047;BMP280;31510;48.122;11.576;2023-03-25T08:29:07;95240.97;;;8.59
40047;BMP280;31510;48.122;11.576;2023-03-25T08:31:34;95241.31;;;8.70
40047;BMP280;31510;48.122;11.576;2023-03-25T08:34:03;95242.88;;;8.80
40047;BMP280;31510;48.122;11.576;2023-03-25T08:36:30;95236.38;;;8.90
40047;BMP280;31510;48.122;11.576;2023-03-25T08:38:55;95236.41;;;8.99
40047;BMP280;31510;48.122;11.576;2023-03-25T08:41:20;95231.28;;;9.04
40047;BMP280;31510;48.122;11.576;2023-03-25T08:43:46;95236.44;;;9.08
40047;BMP280;31510;48.122;11.576;2023-03-25T08:46:11;95217.56;;;9.14
40047;BMP280;31510;48.122;11.576;2023-03-25T08:48:37;95224.25;;;9.19
40047;BMP280;31510;48.122;11.576;2023-03-25T08:51:02;95229.84;;;9.21
40047;BMP280;31510;48.122;11.576;2023-03-25T08:53:28;95236.84;;;9.27
40047;BMP280;31510;48.122;11.576;2023-03-25T08:55:56;95239.94;;;9.35
40047;BMP280;31510;48.122;11.576;2023-03-25T08:58:22;95237.44;;;9.40
40047;BMP280;31510;48.122;11.576;2023-03-25T09:00:52;95222.38;;;9.46
40047;BMP280;31510;48.122;11.576;2023-03-25T09:03:21;95237.59;;;9.46
40047;BMP280;31510;48.122;11.576;2023-03-25T09:05:47;95232.56;;;9.48
40047;BMP280;31510;48.122;11.576;2023-03-25T09:08:12;95240.84;;;9.50
40047;BMP280;31510;48.122;11.576;2023-03-25T09:10:38;95236.28;;;9.50
40047;BMP280;31510;48.122;11.576;2023-03-25T09:13:04;95232.56;;;9.48
40047;BMP280;31510;48.122;11.576;2023-03-25T09:15:29;95233.34;;;9.48
40047;BMP280;31510;48.122;11.576;2023-03-25T09:17:55;95241.31;;;9.48
40047;BMP280;31510;48.122;11.576;2023-03-25T09:20:21;95222.84;;;9.45
40047;BMP280;31510;48.122;11.576;2023-03-25T09:22:47;95242.47;;;9.38
40047;BMP280;31510;48.122;11.576;2023-03-25T09:25:12;95245.13;;;9.38
40047;BMP280;31510;48.122;11.576;2023-03-25T09:27:38;95233.47;;;9.45
40047;BMP280;31510;48.122;11.576;2023-03-25T09:30:04;95227.41;;;9.53
40047;BMP280;31510;48.122;11.576;2023-03-25T09:32:30;95228.91;;;9.63
40047;BMP280;31510;48.122;11.576;2023-03-25T09:34:55;95217.97;;;9.70
40047;BMP280;31510;48.122;11.576;2023-03-25T09:37:21;95223.88;;;9.74
40047;BMP280;31510;48.122;11.576;2023-03-25T09:39:46;95219.47;;;9.80
40047;BMP280;31510;48.122;11.576;2023-03-25T09:42:39;95217.97;;;9.88
40047;BMP280;31510;48.122;11.576;2023-03-25T09:45:24;95214.59;;;9.96
40047;BMP280;31510;48.122;11.576;2023-03-25T09:48:22;95218.72;;;10.06
40047;BMP280;31510;48.122;11.576;2023-03-25T09:50:48;95202.00;;;10.14
40047;BMP280;31510;48.122;11.576;2023-03-25T09:53:28;95192.97;;;10.21
40047;BMP280;31510;48.122;11.576;2023-03-25T09:55:55;95211.91;;;10.23
40047;BMP280;31510;48.122;11.576;2023-03-25T10:00:52;95202.75;;;10.33
40047;BMP280;31510;48.122;11.576;2023-03-25T10:03:34;95204.78;;;10.29
40047;BMP280;31510;48.122;11.576;2023-03-25T10:06:13;95199.03;;;10.30
40047;BMP280;31510;48.122;11.576;2023-03-25T10:09:04;95187.03;;;10.35
40047;BMP280;31510;48.122;11.576;2023-03-25T10:11:48;95186.84;;;10.47
40047;BMP280;31510;48.122;11.576;2023-03-25T10:14:26;95179.41;;;10.60
40047;BMP280;31510;48.122;11.576;2023-03-25T10:19:42;95174.00;;;10.77
40047;BMP280;31510;48.122;11.576;2023-03-25T10:22:17;95172.22;;;10.83
40047;BMP280;31510;48.122;11.576;2023-03-25T10:24:55;95156.78;;;10.87
40047;BMP280;31510;48.122;11.576;2023-03-25T10:27:28;95150.38;;;10.94
40047;BMP280;31510;48.122;11.576;2023-03-25T10:30:03;95154.41;;;10.89
40047;BMP280;31510;48.122;11.576;2023-03-25T10:32:39;95155.00;;;10.84
40047;BMP280;31510;48.122;11.576;2023-03-25T10:35:10;95142.88;;;10.83
40047;BMP280;31510;48.122;11.576;2023-03-25T10:37:39;95160.34;;;10.84
40047;BMP280;31510;48.122;11.576;2023-03-25T10:40:23;95165.69;;;10.84
40047;BMP280;31510;48.122;11.576;2023-03-25T10:45:40;95152.22;;;10.79
40047;BMP280;31510;48.122;11.576;2023-03-25T10:48:21;95163.78;;;10.76
40047;BMP280;31510;48.122;11.576;2023-03-25T10:50:49;95165.72;;;10.75
40047;BMP280;31510;48.122;11.576;2023-03-25T10:53:25;95170.31;;;10.75
40047;BMP280;31510;48.122;11.576;2023-03-25T10:56:02;95161.88;;;10.76
40047;BMP280;31510;48.122;11.576;2023-03-25T10:58:29;95151.22;;;10.76
40047;BMP280;31510;48.122;11.576;2023-03-25T11:00:55;95151.22;;;10.76
40047;BMP280;31510;48.122;11.576;2023-03-25T11:03:31;95147.91;;;10.81
40047;BMP280;31510;48.122;11.576;2023-03-25T11:05:58;95146.00;;;10.82
40047;BMP280;31510;48.122;11.576;2023-03-25T11:08:24;95149.22;;;10.86
40047;BMP280;31510;48.122;11.576;2023-03-25T11:10:50;95125.78;;;10.90
40047;BMP280;31510;48.122;11.576;2023-03-25T11:13:26;95137.63;;;10.98
40047;BMP280;31510;48.122;11.576;2023-03-25T11:15:53;95114.47;;;11.04
40047;BMP280;31510;48.122;11.576;2023-03-25T11:18:37;95116.69;;;11.05
40047;BMP280;31510;48.122;11.576;2023-03-25T11:21:11;95127.91;;;11.09
40047;BMP280;31510;48.122;11.576;2023-03-25T11:23:45;95121.69;;;11.12
40047;BMP280;31510;48.122;11.576;2023-03-25T11:26:17;95118.28;;;11.12
40047;BMP280;31510;48.122;11.576;2023-03-25T11:28:45;95119.50;;;11.02
40047;BMP280;31510;48.122;11.576;2023-03-25T11:31:19;95113.78;;;10.94
40047;BMP280;31510;48.122;11.576;2023-03-25T11:33:59;95110.56;;;10.90
40047;BMP280;31510;48.122;11.576;2023-03-25T11:36:28;95104.00;;;10.91
40047;BMP280;31510;48.122;11.576;2023-03-25T11:39:00;95104.84;;;10.97
40047;BMP280;31510;48.122;11.576;2023-03-25T11:41:33;95098.44;;;11.04
40047;BMP280;31510;48.122;11.576;2023-03-25T11:44:00;95096.44;;;11.13
40047;BMP280;31510;48.122;11.576;2023-03-25T11:46:25;95085.44;;;11.20
40047;BMP280;31510;48.122;11.576;2023-03-25T11:48:51;95078.28;;;11.26
40047;BMP280;31510;48.122;11.576;2023-03-25T11:51:22;95082.59;;;11.23
40047;BMP280;31510;48.122;11.576;2023-03-25T11:53:59;95090.03;;;11.19
40047;BMP280;31510;48.122;11.576;2023-03-25T11:56:31;95098.06;;;11.19
40047;BMP280;31510;48.122;11.576;2023-03-25T11:58:59;95074.47;;;11.18
40047;BMP280;31510;48.122;11.576;2023-03-25T12:01:37;95070.97;;;11.12
40047;BMP280;31510;48.122;11.576;2023-03-25T12:07:08;95066.19;;;11.16
40047;BMP280;31510;48.122;11.576;2023-03-25T12:09:34;95069.91;;;11.18
40047;BMP280;31510;48.122;11.576;2023-03-25T12:20:22;95054.47;;;11.37
40047;BMP280;31510;48.122;11.576;2023-03-25T12:23:09;95055.66;;;11.36
40047;BMP280;31510;48.122;11.576;2023-03-25T12:28:58;95057.97;;;11.43
40047;BMP280;31510;48.122;11.576;2023-03-25T12:32:05;95058.91;;;11.40
40047;BMP280;31510;48.122;11.576;2023-03-25T12:34:56;95070.78;;;11.39
40047;BMP280;31510;48.122;11.576;2023-03-25T12:43:04;95057.59;;;11.35
40047;BMP280;31510;48.122;11.576;2023-03-25T12:45:56;95080.03;;;11.29
40047;BMP280;31510;48.122;11.576;2023-03-25T12:48:56;95063.47;;;11.25
40047;BMP280;31510;48.122;11.576;2023-03-25T12:51:46;95077.94;;;11.33
40047;BMP280;31510;48.122;11.576;2023-03-25T13:07:20;95059.16;;;11.79
40047;BMP280;31510;48.122;11.576;2023-03-25T13:10:02;95075.00;;;11.83
40047;BMP280;31510;48.122;11.576;2023-03-25T13:12:38;95052.56;;;11.75
40047;BMP280;31510;48.122;11.576;2023-03-25T13:15:18;95066.19;;;11.77
40047;BMP280;31510;48.122;11.576;2023-03-25T13:17:54;95054.56;;;11.80
40047;BMP280;31510;48.122;11.576;2023-03-25T13:20:24;95037.06;;;11.79
40047;BMP280;31510;48.122;11.576;2023-03-25T13:22:54;95053.09;;;11.79
40047;BMP280;31510;48.122;11.576;2023-03-25T13:25:27;95050.34;;;11.88
40047;BMP280;31510;48.122;11.576;2023-03-25T13:27:59;95036.22;;;11.73
40047;BMP280;31510;48.122;11.576;2023-03-25T13:30:33;95059.34;;;11.61
40047;BMP280;31510;48.122;11.576;2023-03-25T13:33:05;95071.03;;;11.64
40047;BMP280;31510;48.122;11.576;2023-03-25T13:36:00;95079.63;;;11.68
40047;BMP280;31510;48.122;11.576;2023-03-25T13:38:39;95079.88;;;11.70
40047;BMP280;31510;48.122;11.576;2023-03-25T13:41:20;95064.41;;;11.59
40047;BMP280;31510;48.122;11.576;2023-03-25T13:43:54;95070.72;;;11.48
40047;BMP280;31510;48.122;11.576;2023-03-25T13:46:26;95077.00;;;11.36
40047;BMP280;31510;48.122;11.576;2023-03-25T13:49:10;95067.91;;;11.28
40047;BMP280;31510;48.122;11.576;2023-03-25T13:51:37;95052.78;;;11.25
40047;BMP280;31510;48.122;11.576;2023-03-25T13:54:28;95069.16;;;11.18
40047;BMP280;31510;48.122;11.576;2023-03-25T14:05:43;95046.00;;;11.24
40047;BMP280;31510;48.122;11.576;2023-03-25T14:08:26;95061.34;;;11.29
40047;BMP280;31510;48.122;11.576;2023-03-25T14:13:54;95041.91;;;11.14
40047;BMP280;31510;48.122;11.576;2023-03-25T14:16:25;95054.53;;;11.14
40047;BMP280;31510;48.122;11.576;2023-03-25T14:19:00;95066.38;;;11.13
40047;BMP280;31510;48.122;11.576;2023-03-25T14:24:04;95055.34;;;11.19
40047;BMP280;31510;48.122;11.576;2023-03-25T14:26:32;95067.78;;;11.22
40047;BMP280;31510;48.122;11.576;2023-03-25T14:29:04;95045.50;;;11.25
40047;BMP280;31510;48.122;11.576;2023-03-25T14:31:32;95049.66;;;11.26
40047;BMP280;31510;48.122;11.576;2023-03-25T14:36:31;95058.50;;;11.32
40047;BMP280;31510;48.122;11.576;2023-03-25T14:41:54;95055.38;;;11.34
40047;BMP280;31510;48.122;11.576;2023-03-25T14:44:19;95051.34;;;11.38
40047;BMP280;31510;48.122;11.576;2023-03-25T14:46:45;95051.03;;;11.45
40047;BMP280;31510;48.122;11.576;2023-03-25T14:49:21;95056.03;;;11.52
40047;BMP280;31510;48.122;11.576;2023-03-25T14:51:50;95046.63;;;11.56
40047;BMP280;31510;48.122;11.576;2023-03-25T14:54:30;95032.81;;;11.58
40047;BMP280;31510;48.122;11.576;2023-03-25T14:56:58;95012.09;;;11.53
40047;BMP280;31510;48.122;11.576;2023-03-25T14:59:29;95032.44;;;11.51
40047;BMP280;31510;48.122;11.576;2023-03-25T15:02:02;95048.19;;;11.49
40047;BMP280;31510;48.122;11.576;2023-03-25T15:04:30;95044.47;;;11.46
40047;BMP280;31510;48.122;11.576;2023-03-25T15:06:58;95040.19;;;11.49
40047;BMP280;31510;48.122;11.576;2023-03-25T15:09:26;95038.78;;;11.53
40047;BMP280;31510;48.122;11.576;2023-03-25T15:11:59;95035.50;;;11.58
40047;BMP280;31510;48.122;11.576;2023-03-25T15:14:30;95030.69;;;11.62
40047;BMP280;31510;48.122;11.576;2023-03-25T15:16:59;95032.63;;;11.61
40047;BMP280;31510;48.122;11.576;2023-03-25T15:19:25;95028.78;;;11.62
40047;BMP280;31510;48.122;11.576;2023-03-25T15:24:42;95034.03;;;11.71
40047;BMP280;31510;48.122;11.576;2023-03-25T15:27:33;95036.22;;;11.73
40047;BMP280;31510;48.122;11.576;2023-03-25T15:35:55;95042.97;;;11.68
40047;BMP280;31510;48.122;11.576;2023-03-25T15:38:46;95042.31;;;11.59
40047;BMP280;31510;48.122;11.576;2023-03-25T15:44:04;95029.50;;;11.49
40047;BMP280;31510;48.122;11.576;2023-03-25T15:47:05;95017.50;;;11.44
40047;BMP280;31510;48.122;11.576;2023-03-25T15:53:02;95047.66;;;11.36
40047;BMP280;31510;48.122;11.576;2023-03-25T15:55:35;95046.38;;;11.31
40047;BMP280;31510;48.122;11.576;2023-03-25T15:58:06;95033.66;;;11.26
40047;BMP280;31510;48.122;11.576;2023-03-25T16:00:43;95045.72;;;11.22
40047;BMP280;31510;48.122;11.576;2023-03-25T16:03:14;95048.56;;;11.18
40047;BMP280;31510;48.122;11.576;2023-03-25T16:05:48;95025.09;;;11.22
40047;BMP280;31510;48.122;11.576;2023-03-25T16:08:20;95037.72;;;11.22